sensor_id;sensor_type;location;lat;lon;timestamp;P1;durP1;ratioP1;P2;durP2;ratioP2
82387;SDS011;72027;47.420;9.310;2024-03-22T00:01:56;7.53;;;4.10;;
82387;SDS011;72027;47.420;9.310;2024-03-22T00:04:22;8.40;;;3.87;;
82387;SDS011;72027;47.420;9.310;2024-03-22T00:06:49;12.40;;;3.75;;
82387;SDS011;72027;47.420;9.310;2024-03-22T00:09:16;7.10;;;3.88;;
82387;SDS011;72027;47.420;9.310;2024-03-22T00:11:43;9.73;;;2.97;;
82387;SDS011;72027;47.420;9.310;2024-03-22T00:14:10;11.05;;;4.13;;
82387;SDS011;72027;47.420;9.310;2024-03-22T00:16:38;8.95;;;4.38;;
82387;SDS011;72027;47.420;9.310;2024-03-22T00:19:04;4.78;;;3.47;;
82387;SDS011;72027;47.420;9.310;2024-03-22T00:21:31;5.97;;;3.30;;
82387;SDS011;72027;47.420;9.310;2024-03-22T00:23:57;4.90;;;3.77;;
82387;SDS011;72027;47.420;9.310;2024-03-22T00:26:26;6.28;;;3.17;;
82387;SDS011;72027;47.420;9.310;2024-03-22T00:28:52;9.40;;;3.42;;
82387;SDS011;72027;47.420;9.310;2024-03-22T00:33:46;6.93;;;3.63;;
82387;SDS011;72027;47.420;9.310;2024-03-22T00:36:13;6.70;;;3.47;;
82387;SDS011;72027;47.420;9.310;2024-03-22T00:38:39;5.17;;;3.40;;
82387;SDS011;72027;47.420;9.310;2024-03-22T00:41:06;5.43;;;3.17;;
82387;SDS011;72027;47.420;9.310;2024-03-22T00:43:32;5.50;;;3.40;;
82387;SDS011;72027;47.420;9.310;2024-03-22T00:45:59;8.48;;;3.55;;
82387;SDS011;72027;47.420;9.310;2024-03-22T00:50:53;6.18;;;3.40;;
82387;SDS011;72027;47.420;9.310;2024-03-22T00:53:19;4.13;;;3.00;;
82387;SDS011;72027;47.420;9.310;2024-03-22T00:58:16;7.78;;;3.38;;
82387;SDS011;72027;47.420;9.310;2024-03-22T01:00:44;4.05;;;3.05;;
82387;SDS011;72027;47.420;9.310;2024-03-22T01:03:10;6.88;;;3.88;;
82387;SDS011;72027;47.420;9.310;2024-03-22T01:05:37;6.20;;;3.83;;
82387;SDS011;72027;47.420;9.310;2024-03-22T01:08:05;9.37;;;3.70;;
82387;SDS011;72027;47.420;9.310;2024-03-22T01:10:33;7.00;;;4.07;;
82387;SDS011;72027;47.420;9.310;2024-03-22T01:12:59;6.55;;;3.30;;
82387;SDS011;72027;47.420;9.310;2024-03-22T01:15:26;4.40;;;3.00;;
82387;SDS011;72027;47.420;9.310;2024-03-22T01:17:52;3.67;;;2.97;;
82387;SDS011;72027;47.420;9.310;2024-03-22T01:20:19;4.22;;;3.15;;
82387;SDS011;72027;47.420;9.310;2024-03-22T01:22:45;5.33;;;3.33;;
82387;SDS011;72027;47.420;9.310;2024-03-22T01:25:14;4.80;;;3.63;;
82387;SDS011;72027;47.420;9.310;2024-03-22T01:27:39;3.75;;;2.90;;
82387;SDS011;72027;47.420;9.310;2024-03-22T01:32:34;4.93;;;3.35;;
82387;SDS011;72027;47.420;9.310;2024-03-22T01:35:01;4.72;;;2.88;;
82387;SDS011;72027;47.420;9.310;2024-03-22T01:37:27;4.93;;;3.60;;
82387;SDS011;72027;47.420;9.310;2024-03-22T01:42:20;5.95;;;3.20;;
82387;SDS011;72027;47.420;9.310;2024-03-22T01:44:48;4.07;;;3.33;;
82387;SDS011;72027;47.420;9.310;2024-03-22T01:47:14;4.10;;;3.10;;
82387;SDS011;72027;47.420;9.310;2024-03-22T01:49:42;5.55;;;3.55;;
82387;SDS011;72027;47.420;9.310;2024-03-22T01:52:08;6.60;;;2.95;;
82387;SDS011;72027;47.420;9.310;2024-03-22T01:54:35;5.63;;;3.08;;
82387;SDS011;72027;47.420;9.310;2024-03-22T01:57:01;7.17;;;3.57;;
82387;SDS011;72027;47.420;9.310;2024-03-22T01:59:29;7.97;;;3.30;;
82387;SDS011;72027;47.420;9.310;2024-03-22T02:01:55;5.05;;;3.88;;
82387;SDS011;72027;47.420;9.310;2024-03-22T02:04:22;6.18;;;3.33;;
82387;SDS011;72027;47.420;9.310;2024-03-22T02:06:48;4.40;;;2.80;;
82387;SDS011;72027;47.420;9.310;2024-03-22T02:11:41;8.05;;;3.47;;
82387;SDS011;72027;47.420;9.310;2024-03-22T02:14:09;4.85;;;3.70;;
82387;SDS011;72027;47.420;9.310;2024-03-22T02:16:36;5.47;;;3.77;;
82387;SDS011;72027;47.420;9.310;2024-03-22T02:19:03;3.95;;;3.53;;
82387;SDS011;72027;47.420;9.310;2024-03-22T02:21:29;4.30;;;3.50;;
82387;SDS011;72027;47.420;9.310;2024-03-22T02:23:57;5.43;;;3.25;;
82387;SDS011;72027;47.420;9.310;2024-03-22T02:26:23;3.28;;;2.85;;
82387;SDS011;72027;47.420;9.310;2024-03-22T02:28:50;4.40;;;2.95;;
82387;SDS011;72027;47.420;9.310;2024-03-22T02:31:16;3.70;;;3.30;;
82387;SDS011;72027;47.420;9.310;2024-03-22T02:33:43;3.42;;;2.65;;
82387;SDS011;72027;47.420;9.310;2024-03-22T02:36:09;4.10;;;2.57;;
82387;SDS011;72027;47.420;9.310;2024-03-22T02:38:35;4.43;;;3.38;;
82387;SDS011;72027;47.420;9.310;2024-03-22T02:41:03;5.20;;;4.33;;
82387;SDS011;72027;47.420;9.310;2024-03-22T02:43:30;7.90;;;4.03;;
82387;SDS011;72027;47.420;9.310;2024-03-22T02:45:56;7.80;;;3.27;;
82387;SDS011;72027;47.420;9.310;2024-03-22T02:48:23;7.40;;;3.47;;
82387;SDS011;72027;47.420;9.310;2024-03-22T02:50:48;14.37;;;4.57;;
82387;SDS011;72027;47.420;9.310;2024-03-22T02:55:41;6.15;;;3.55;;
82387;SDS011;72027;47.420;9.310;2024-03-22T03:00:35;9.67;;;4.10;;
82387;SDS011;72027;47.420;9.310;2024-03-22T03:03:03;3.50;;;3.20;;
82387;SDS011;72027;47.420;9.310;2024-03-22T03:05:30;6.65;;;3.72;;
82387;SDS011;72027;47.420;9.310;2024-03-22T03:07:56;5.90;;;3.55;;
82387;SDS011;72027;47.420;9.310;2024-03-22T03:10:22;4.17;;;3.50;;
82387;SDS011;72027;47.420;9.310;2024-03-22T03:12:50;5.25;;;3.55;;
82387;SDS011;72027;47.420;9.310;2024-03-22T03:15:17;5.00;;;3.73;;
82387;SDS011;72027;47.420;9.310;2024-03-22T03:17:44;8.50;;;3.63;;
82387;SDS011;72027;47.420;9.310;2024-03-22T03:20:10;8.83;;;3.63;;
82387;SDS011;72027;47.420;9.310;2024-03-22T03:22:38;10.52;;;4.93;;
82387;SDS011;72027;47.420;9.310;2024-03-22T03:25:05;5.15;;;3.70;;
82387;SDS011;72027;47.420;9.310;2024-03-22T03:27:33;5.00;;;3.65;;
82387;SDS011;72027;47.420;9.310;2024-03-22T03:29:59;12.77;;;3.83;;
82387;SDS011;72027;47.420;9.310;2024-03-22T03:32:27;9.52;;;3.58;;
82387;SDS011;72027;47.420;9.310;2024-03-22T03:34:53;5.93;;;3.83;;
82387;SDS011;72027;47.420;9.310;2024-03-22T03:37:20;8.73;;;3.80;;
82387;SDS011;72027;47.420;9.310;2024-03-22T03:39:46;6.55;;;3.25;;
82387;SDS011;72027;47.420;9.310;2024-03-22T03:42:13;5.97;;;3.75;;
82387;SDS011;72027;47.420;9.310;2024-03-22T03:44:40;4.88;;;3.45;;
82387;SDS011;72027;47.420;9.310;2024-03-22T03:47:08;7.90;;;4.32;;
82387;SDS011;72027;47.420;9.310;2024-03-22T03:49:35;6.65;;;3.97;;
82387;SDS011;72027;47.420;9.310;2024-03-22T03:52:02;7.10;;;4.53;;
82387;SDS011;72027;47.420;9.310;2024-03-22T03:54:28;9.77;;;4.18;;
82387;SDS011;72027;47.420;9.310;2024-03-22T03:56:55;6.07;;;3.92;;
82387;SDS011;72027;47.420;9.310;2024-03-22T03:59:21;6.13;;;3.47;;
82387;SDS011;72027;47.420;9.310;2024-03-22T04:01:48;4.20;;;3.25;;
82387;SDS011;72027;47.420;9.310;2024-03-22T04:04:14;4.40;;;3.30;;
82387;SDS011;72027;47.420;9.310;2024-03-22T04:06:43;5.75;;;3.28;;
82387;SDS011;72027;47.420;9.310;2024-03-22T04:09:09;5.78;;;3.22;;
82387;SDS011;72027;47.420;9.310;2024-03-22T04:11:36;5.32;;;3.38;;
82387;SDS011;72027;47.420;9.310;2024-03-22T04:14:03;6.45;;;3.70;;
82387;SDS011;72027;47.420;9.310;2024-03-22T04:16:30;8.57;;;4.32;;
82387;SDS011;72027;47.420;9.310;2024-03-22T04:18:56;4.20;;;3.38;;
82387;SDS011;72027;47.420;9.310;2024-03-22T04:21:23;9.55;;;4.28;;
82387;SDS011;72027;47.420;9.310;2024-03-22T04:23:50;5.33;;;3.83;;
82387;SDS011;72027;47.420;9.310;2024-03-22T04:26:17;7.60;;;3.45;;
82387;SDS011;72027;47.420;9.310;2024-03-22T04:28:43;5.47;;;3.53;;
82387;SDS011;72027;47.420;9.310;2024-03-22T04:31:10;6.22;;;3.97;;
82387;SDS011;72027;47.420;9.310;2024-03-22T04:33:36;6.20;;;3.67;;
82387;SDS011;72027;47.420;9.310;2024-03-22T04:36:04;6.47;;;3.45;;
82387;SDS011;72027;47.420;9.310;2024-03-22T04:38:30;3.65;;;2.90;;
82387;SDS011;72027;47.420;9.310;2024-03-22T04:40:59;4.40;;;3.30;;
82387;SDS011;72027;47.420;9.310;2024-03-22T04:43:28;7.18;;;3.60;;
82387;SDS011;72027;47.420;9.310;2024-03-22T04:45:55;5.82;;;3.60;;
82387;SDS011;72027;47.420;9.310;2024-03-22T04:48:21;14.67;;;3.90;;
82387;SDS011;72027;47.420;9.310;2024-03-22T04:50:49;8.13;;;3.80;;
82387;SDS011;72027;47.420;9.310;2024-03-22T04:53:15;5.60;;;4.35;;
82387;SDS011;72027;47.420;9.310;2024-03-22T04:55:43;9.13;;;4.53;;
82387;SDS011;72027;47.420;9.310;2024-03-22T04:58:13;5.68;;;3.85;;
82387;SDS011;72027;47.420;9.310;2024-03-22T05:00:40;6.95;;;5.22;;
82387;SDS011;72027;47.420;9.310;2024-03-22T05:03:06;5.90;;;3.85;;
82387;SDS011;72027;47.420;9.310;2024-03-22T05:05:33;3.67;;;2.92;;
82387;SDS011;72027;47.420;9.310;2024-03-22T05:07:59;6.75;;;3.72;;
82387;SDS011;72027;47.420;9.310;2024-03-22T05:10:26;5.05;;;3.63;;
82387;SDS011;72027;47.420;9.310;2024-03-22T05:12:54;4.78;;;3.47;;
82387;SDS011;72027;47.420;9.310;2024-03-22T05:15:22;9.48;;;4.30;;
82387;SDS011;72027;47.420;9.310;2024-03-22T05:17:48;7.15;;;4.20;;
82387;SDS011;72027;47.420;9.310;2024-03-22T05:20:15;5.80;;;4.28;;
82387;SDS011;72027;47.420;9.310;2024-03-22T05:22:41;13.07;;;4.30;;
82387;SDS011;72027;47.420;9.310;2024-03-22T05:25:09;6.65;;;4.00;;
82387;SDS011;72027;47.420;9.310;2024-03-22T05:27:35;10.73;;;4.15;;
82387;SDS011;72027;47.420;9.310;2024-03-22T05:30:03;8.57;;;5.18;;
82387;SDS011;72027;47.420;9.310;2024-03-22T05:37:23;9.50;;;5.25;;
82387;SDS011;72027;47.420;9.310;2024-03-22T05:39:50;9.75;;;5.00;;
82387;SDS011;72027;47.420;9.310;2024-03-22T05:42:16;8.57;;;4.60;;
82387;SDS011;72027;47.420;9.310;2024-03-22T05:44:43;6.82;;;4.25;;
82387;SDS011;72027;47.420;9.310;2024-03-22T05:47:11;5.32;;;3.75;;
82387;SDS011;72027;47.420;9.310;2024-03-22T05:49:39;5.93;;;4.20;;
82387;SDS011;72027;47.420;9.310;2024-03-22T05:52:05;7.25;;;3.92;;
82387;SDS011;72027;47.420;9.310;2024-03-22T05:54:32;5.97;;;4.15;;
82387;SDS011;72027;47.420;9.310;2024-03-22T05:56:58;7.50;;;3.87;;
82387;SDS011;72027;47.420;9.310;2024-03-22T05:59:26;7.85;;;4.15;;
82387;SDS011;72027;47.420;9.310;2024-03-22T06:04:19;7.90;;;5.43;;
82387;SDS011;72027;47.420;9.310;2024-03-22T06:06:46;5.97;;;3.93;;
82387;SDS011;72027;47.420;9.310;2024-03-22T06:09:13;9.18;;;4.03;;
82387;SDS011;72027;47.420;9.310;2024-03-22T06:11:44;6.78;;;4.43;;
82387;SDS011;72027;47.420;9.310;2024-03-22T06:14:11;9.05;;;4.03;;
82387;SDS011;72027;47.420;9.310;2024-03-22T06:16:37;6.63;;;3.87;;
82387;SDS011;72027;47.420;9.310;2024-03-22T06:19:04;9.32;;;4.55;;
82387;SDS011;72027;47.420;9.310;2024-03-22T06:21:30;8.10;;;4.13;;
82387;SDS011;72027;47.420;9.310;2024-03-22T06:26:24;8.25;;;4.78;;
82387;SDS011;72027;47.420;9.310;2024-03-22T06:28:50;5.88;;;4.28;;
82387;SDS011;72027;47.420;9.310;2024-03-22T06:31:16;7.88;;;3.95;;
82387;SDS011;72027;47.420;9.310;2024-03-22T06:33:43;8.60;;;4.43;;
82387;SDS011;72027;47.420;9.310;2024-03-22T06:36:09;9.77;;;4.00;;
82387;SDS011;72027;47.420;9.310;2024-03-22T06:41:03;5.80;;;3.90;;
82387;SDS011;72027;47.420;9.310;2024-03-22T06:43:30;6.00;;;3.50;;
82387;SDS011;72027;47.420;9.310;2024-03-22T06:45:56;7.17;;;3.77;;
82387;SDS011;72027;47.420;9.310;2024-03-22T06:48:23;11.27;;;4.28;;
82387;SDS011;72027;47.420;9.310;2024-03-22T06:50:49;4.67;;;3.57;;
82387;SDS011;72027;47.420;9.310;2024-03-22T06:55:41;8.55;;;4.03;;
82387;SDS011;72027;47.420;9.310;2024-03-22T06:58:10;5.57;;;3.88;;
82387;SDS011;72027;47.420;9.310;2024-03-22T07:00:35;9.15;;;3.10;;
82387;SDS011;72027;47.420;9.310;2024-03-22T07:03:02;7.18;;;3.58;;
82387;SDS011;72027;47.420;9.310;2024-03-22T07:05:29;6.53;;;3.45;;
82387;SDS011;72027;47.420;9.310;2024-03-22T07:07:56;7.20;;;3.15;;
82387;SDS011;72027;47.420;9.310;2024-03-22T07:12:53;5.32;;;3.15;;
82387;SDS011;72027;47.420;9.310;2024-03-22T07:15:22;5.82;;;2.78;;
82387;SDS011;72027;47.420;9.310;2024-03-22T07:17:49;5.18;;;2.72;;
82387;SDS011;72027;47.420;9.310;2024-03-22T07:20:16;6.43;;;2.70;;
82387;SDS011;72027;47.420;9.310;2024-03-22T07:22:42;13.23;;;3.55;;
82387;SDS011;72027;47.420;9.310;2024-03-22T07:25:08;3.17;;;2.57;;
82387;SDS011;72027;47.420;9.310;2024-03-22T07:27:35;7.43;;;3.00;;
82387;SDS011;72027;47.420;9.310;2024-03-22T07:30:01;3.83;;;2.83;;
82387;SDS011;72027;47.420;9.310;2024-03-22T07:32:30;4.72;;;2.88;;
82387;SDS011;72027;47.420;9.310;2024-03-22T07:34:57;4.05;;;2.80;;
82387;SDS011;72027;47.420;9.310;2024-03-22T07:37:24;2.63;;;2.10;;
82387;SDS011;72027;47.420;9.310;2024-03-22T07:39:50;5.38;;;3.30;;
82387;SDS011;72027;47.420;9.310;2024-03-22T07:42:17;5.18;;;3.22;;
82387;SDS011;72027;47.420;9.310;2024-03-22T07:44:42;5.43;;;3.30;;
82387;SDS011;72027;47.420;9.310;2024-03-22T07:47:09;6.03;;;3.35;;
82387;SDS011;72027;47.420;9.310;2024-03-22T07:49:37;5.13;;;2.70;;
82387;SDS011;72027;47.420;9.310;2024-03-22T07:52:04;6.40;;;2.35;;
82387;SDS011;72027;47.420;9.310;2024-03-22T07:54:30;9.88;;;3.55;;
82387;SDS011;72027;47.420;9.310;2024-03-22T07:56:57;6.13;;;2.20;;
82387;SDS011;72027;47.420;9.310;2024-03-22T07:59:23;7.20;;;2.97;;
82387;SDS011;72027;47.420;9.310;2024-03-22T08:01:50;5.43;;;2.10;;
82387;SDS011;72027;47.420;9.310;2024-03-22T08:04:16;8.43;;;3.00;;
82387;SDS011;72027;47.420;9.310;2024-03-22T08:06:50;5.72;;;2.67;;
82387;SDS011;72027;47.420;9.310;2024-03-22T08:09:16;5.03;;;2.30;;
82387;SDS011;72027;47.420;9.310;2024-03-22T08:11:43;12.85;;;2.95;;
82387;SDS011;72027;47.420;9.310;2024-03-22T08:14:09;5.07;;;2.45;;
82387;SDS011;72027;47.420;9.310;2024-03-22T08:16:36;6.57;;;2.45;;
82387;SDS011;72027;47.420;9.310;2024-03-22T08:19:02;7.25;;;3.00;;
82387;SDS011;72027;47.420;9.310;2024-03-22T08:21:29;4.85;;;3.10;;
82387;SDS011;72027;47.420;9.310;2024-03-22T08:23:56;3.20;;;2.35;;
82387;SDS011;72027;47.420;9.310;2024-03-22T08:26:23;4.47;;;2.33;;
82387;SDS011;72027;47.420;9.310;2024-03-22T08:28:50;10.20;;;2.97;;
82387;SDS011;72027;47.420;9.310;2024-03-22T08:31:17;7.20;;;3.17;;
82387;SDS011;72027;47.420;9.310;2024-03-22T08:36:10;7.30;;;2.83;;
82387;SDS011;72027;47.420;9.310;2024-03-22T08:38:36;2.85;;;2.20;;
82387;SDS011;72027;47.420;9.310;2024-03-22T08:41:04;4.80;;;2.10;;
82387;SDS011;72027;47.420;9.310;2024-03-22T08:43:30;3.22;;;2.15;;
82387;SDS011;72027;47.420;9.310;2024-03-22T08:46:00;3.60;;;2.70;;
82387;SDS011;72027;47.420;9.310;2024-03-22T08:48:26;7.78;;;3.22;;
82387;SDS011;72027;47.420;9.310;2024-03-22T08:50:54;4.72;;;2.05;;
82387;SDS011;72027;47.420;9.310;2024-03-22T08:53:21;17.08;;;4.57;;
82387;SDS011;72027;47.420;9.310;2024-03-22T08:55:48;4.20;;;2.60;;
82387;SDS011;72027;47.420;9.310;2024-03-22T08:58:15;8.20;;;2.72;;
82387;SDS011;72027;47.420;9.310;2024-03-22T09:00:43;4.15;;;3.13;;
82387;SDS011;72027;47.420;9.310;2024-03-22T09:03:09;5.22;;;3.08;;
82387;SDS011;72027;47.420;9.310;2024-03-22T09:05:37;6.63;;;2.10;;
82387;SDS011;72027;47.420;9.310;2024-03-22T09:08:03;5.78;;;2.60;;
82387;SDS011;72027;47.420;9.310;2024-03-22T09:10:31;3.75;;;2.45;;
82387;SDS011;72027;47.420;9.310;2024-03-22T09:12:57;5.32;;;2.75;;
82387;SDS011;72027;47.420;9.310;2024-03-22T09:15:25;1.70;;;1.50;;
82387;SDS011;72027;47.420;9.310;2024-03-22T09:17:51;4.63;;;1.80;;
82387;SDS011;72027;47.420;9.310;2024-03-22T09:20:18;2.78;;;1.60;;
82387;SDS011;72027;47.420;9.310;2024-03-22T09:22:45;1.73;;;1.50;;
82387;SDS011;72027;47.420;9.310;2024-03-22T09:25:12;3.90;;;1.75;;
82387;SDS011;72027;47.420;9.310;2024-03-22T09:27:38;4.45;;;1.95;;
82387;SDS011;72027;47.420;9.310;2024-03-22T09:30:06;2.08;;;1.63;;
82387;SDS011;72027;47.420;9.310;2024-03-22T09:32:34;3.80;;;1.73;;
82387;SDS011;72027;47.420;9.310;2024-03-22T09:35:01;3.80;;;1.75;;
82387;SDS011;72027;47.420;9.310;2024-03-22T09:37:27;3.63;;;1.88;;
82387;SDS011;72027;47.420;9.310;2024-03-22T09:39:54;4.03;;;1.40;;
82387;SDS011;72027;47.420;9.310;2024-03-22T09:42:22;4.88;;;1.85;;
82387;SDS011;72027;47.420;9.310;2024-03-22T09:44:51;3.92;;;1.90;;
82387;SDS011;72027;47.420;9.310;2024-03-22T09:47:18;3.85;;;2.65;;
82387;SDS011;72027;47.420;9.310;2024-03-22T09:49:47;2.53;;;1.88;;
82387;SDS011;72027;47.420;9.310;2024-03-22T09:52:15;3.42;;;2.10;;
82387;SDS011;72027;47.420;9.310;2024-03-22T09:54:44;2.05;;;1.55;;
82387;SDS011;72027;47.420;9.310;2024-03-22T09:57:13;5.15;;;1.70;;
82387;SDS011;72027;47.420;9.310;2024-03-22T09:59:42;4.00;;;1.55;;
82387;SDS011;72027;47.420;9.310;2024-03-22T10:02:10;8.43;;;1.63;;
82387;SDS011;72027;47.420;9.310;2024-03-22T10:04:40;2.78;;;1.80;;
82387;SDS011;72027;47.420;9.310;2024-03-22T10:07:08;2.25;;;1.80;;
82387;SDS011;72027;47.420;9.310;2024-03-22T10:09:36;4.60;;;1.70;;
82387;SDS011;72027;47.420;9.310;2024-03-22T10:14:30;2.25;;;1.52;;
82387;SDS011;72027;47.420;9.310;2024-03-22T10:16:56;4.22;;;1.92;;
82387;SDS011;72027;47.420;9.310;2024-03-22T10:19:24;6.03;;;2.13;;
82387;SDS011;72027;47.420;9.310;2024-03-22T10:21:59;2.95;;;1.85;;
82387;SDS011;72027;47.420;9.310;2024-03-22T10:24:28;4.28;;;1.90;;
82387;SDS011;72027;47.420;9.310;2024-03-22T10:26:54;2.72;;;1.33;;
82387;SDS011;72027;47.420;9.310;2024-03-22T10:29:22;6.72;;;1.42;;
82387;SDS011;72027;47.420;9.310;2024-03-22T10:31:49;2.72;;;1.65;;
82387;SDS011;72027;47.420;9.310;2024-03-22T10:34:18;4.38;;;2.03;;
82387;SDS011;72027;47.420;9.310;2024-03-22T10:36:47;5.05;;;2.50;;
82387;SDS011;72027;47.420;9.310;2024-03-22T10:39:16;3.90;;;1.83;;
82387;SDS011;72027;47.420;9.310;2024-03-22T10:41:44;3.17;;;2.20;;
82387;SDS011;72027;47.420;9.310;2024-03-22T10:44:13;4.93;;;2.80;;
82387;SDS011;72027;47.420;9.310;2024-03-22T10:49:10;2.97;;;1.73;;
82387;SDS011;72027;47.420;9.310;2024-03-22T10:51:41;4.65;;;1.63;;
82387;SDS011;72027;47.420;9.310;2024-03-22T10:54:10;3.70;;;1.88;;
82387;SDS011;72027;47.420;9.310;2024-03-22T10:56:40;2.97;;;2.40;;
82387;SDS011;72027;47.420;9.310;2024-03-22T10:59:09;4.30;;;2.22;;
82387;SDS011;72027;47.420;9.310;2024-03-22T11:01:38;2.35;;;1.65;;
82387;SDS011;72027;47.420;9.310;2024-03-22T11:04:06;4.55;;;2.13;;
82387;SDS011;72027;47.420;9.310;2024-03-22T11:06:35;5.88;;;1.90;;
82387;SDS011;72027;47.420;9.310;2024-03-22T11:09:03;4.05;;;1.60;;
82387;SDS011;72027;47.420;9.310;2024-03-22T11:11:29;3.45;;;2.22;;
82387;SDS011;72027;47.420;9.310;2024-03-22T11:14:02;2.85;;;1.83;;
82387;SDS011;72027;47.420;9.310;2024-03-22T11:16:30;2.47;;;1.33;;
82387;SDS011;72027;47.420;9.310;2024-03-22T11:18:57;3.88;;;1.75;;
82387;SDS011;72027;47.420;9.310;2024-03-22T11:21:23;3.40;;;1.70;;
82387;SDS011;72027;47.420;9.310;2024-03-22T11:23:51;4.20;;;1.95;;
82387;SDS011;72027;47.420;9.310;2024-03-22T11:26:17;2.88;;;2.05;;
82387;SDS011;72027;47.420;9.310;2024-03-22T11:28:45;2.65;;;1.20;;
82387;SDS011;72027;47.420;9.310;2024-03-22T11:31:12;0.77;;;0.50;;
82387;SDS011;72027;47.420;9.310;2024-03-22T11:33:40;1.05;;;0.90;;
82387;SDS011;72027;47.420;9.310;2024-03-22T11:36:07;1.73;;;1.00;;
82387;SDS011;72027;47.420;9.310;2024-03-22T11:38:35;2.30;;;1.00;;
82387;SDS011;72027;47.420;9.310;2024-03-22T11:41:01;2.28;;;1.30;;
82387;SDS011;72027;47.420;9.310;2024-03-22T11:43:30;2.72;;;1.52;;
82387;SDS011;72027;47.420;9.310;2024-03-22T11:45:58;5.68;;;1.55;;
82387;SDS011;72027;47.420;9.310;2024-03-22T11:48:26;1.75;;;1.02;;
82387;SDS011;72027;47.420;9.310;2024-03-22T11:50:54;1.52;;;1.10;;
82387;SDS011;72027;47.420;9.310;2024-03-22T11:53:24;1.70;;;0.90;;
82387;SDS011;72027;47.420;9.310;2024-03-22T11:55:51;2.80;;;0.80;;
82387;SDS011;72027;47.420;9.310;2024-03-22T11:58:18;1.25;;;0.90;;
82387;SDS011;72027;47.420;9.310;2024-03-22T12:00:45;1.23;;;0.90;;
82387;SDS011;72027;47.420;9.310;2024-03-22T12:03:12;1.90;;;0.98;;
82387;SDS011;72027;47.420;9.310;2024-03-22T12:05:40;2.08;;;1.27;;
82387;SDS011;72027;47.420;9.310;2024-03-22T12:08:08;1.83;;;0.90;;
82387;SDS011;72027;47.420;9.310;2024-03-22T12:10:34;2.05;;;1.05;;
82387;SDS011;72027;47.420;9.310;2024-03-22T12:13:02;3.40;;;1.27;;
82387;SDS011;72027;47.420;9.310;2024-03-22T12:15:28;3.20;;;1.30;;
82387;SDS011;72027;47.420;9.310;2024-03-22T12:17:55;1.80;;;1.05;;
82387;SDS011;72027;47.420;9.310;2024-03-22T12:20:21;2.92;;;1.10;;
82387;SDS011;72027;47.420;9.310;2024-03-22T12:22:48;3.88;;;0.93;;
82387;SDS011;72027;47.420;9.310;2024-03-22T12:25:16;2.78;;;1.00;;
82387;SDS011;72027;47.420;9.310;2024-03-22T12:27:43;2.58;;;0.93;;
82387;SDS011;72027;47.420;9.310;2024-03-22T12:30:10;2.03;;;1.00;;
82387;SDS011;72027;47.420;9.310;2024-03-22T12:32:38;1.60;;;0.90;;
82387;SDS011;72027;47.420;9.310;2024-03-22T12:35:04;2.03;;;0.90;;
82387;SDS011;72027;47.420;9.310;2024-03-22T12:37:33;2.45;;;1.13;;
82387;SDS011;72027;47.420;9.310;2024-03-22T12:39:59;2.50;;;1.10;;
82387;SDS011;72027;47.420;9.310;2024-03-22T12:42:28;2.97;;;1.05;;
82387;SDS011;72027;47.420;9.310;2024-03-22T12:44:54;9.82;;;1.33;;
82387;SDS011;72027;47.420;9.310;2024-03-22T12:47:22;1.73;;;1.10;;
82387;SDS011;72027;47.420;9.310;2024-03-22T12:49:51;2.45;;;1.35;;
82387;SDS011;72027;47.420;9.310;2024-03-22T12:52:18;2.15;;;1.10;;
82387;SDS011;72027;47.420;9.310;2024-03-22T12:54:44;3.50;;;0.98;;
82387;SDS011;72027;47.420;9.310;2024-03-22T12:57:13;2.17;;;0.90;;
82387;SDS011;72027;47.420;9.310;2024-03-22T12:59:40;2.25;;;0.80;;
82387;SDS011;72027;47.420;9.310;2024-03-22T13:02:07;0.70;;;0.70;;
82387;SDS011;72027;47.420;9.310;2024-03-22T13:04:34;0.88;;;0.88;;
82387;SDS011;72027;47.420;9.310;2024-03-22T13:07:01;5.00;;;0.90;;
82387;SDS011;72027;47.420;9.310;2024-03-22T13:09:27;1.73;;;0.90;;
82387;SDS011;72027;47.420;9.310;2024-03-22T13:11:54;1.90;;;1.10;;
82387;SDS011;72027;47.420;9.310;2024-03-22T13:16:48;2.90;;;1.43;;
82387;SDS011;72027;47.420;9.310;2024-03-22T13:19:15;1.40;;;0.80;;
82387;SDS011;72027;47.420;9.310;2024-03-22T13:21:43;1.02;;;0.90;;
82387;SDS011;72027;47.420;9.310;2024-03-22T13:24:13;1.30;;;0.95;;
82387;SDS011;72027;47.420;9.310;2024-03-22T13:26:40;1.20;;;1.10;;
82387;SDS011;72027;47.420;9.310;2024-03-22T13:29:06;1.27;;;1.15;;
82387;SDS011;72027;47.420;9.310;2024-03-22T13:31:34;1.35;;;1.10;;
82387;SDS011;72027;47.420;9.310;2024-03-22T13:34:01;1.30;;;0.80;;
82387;SDS011;72027;47.420;9.310;2024-03-22T13:36:29;1.05;;;0.80;;
82387;SDS011;72027;47.420;9.310;2024-03-22T13:38:58;1.17;;;0.90;;
82387;SDS011;72027;47.420;9.310;2024-03-22T13:41:25;1.27;;;1.02;;
82387;SDS011;72027;47.420;9.310;2024-03-22T13:43:52;6.43;;;1.10;;
82387;SDS011;72027;47.420;9.310;2024-03-22T13:46:18;1.85;;;1.10;;
82387;SDS011;72027;47.420;9.310;2024-03-22T13:48:45;1.17;;;0.85;;
82387;SDS011;72027;47.420;9.310;2024-03-22T13:53:40;1.10;;;1.00;;
82387;SDS011;72027;47.420;9.310;2024-03-22T13:56:06;1.65;;;1.05;;
82387;SDS011;72027;47.420;9.310;2024-03-22T13:58:33;2.10;;;1.25;;
82387;SDS011;72027;47.420;9.310;2024-03-22T14:00:59;1.88;;;0.95;;
82387;SDS011;72027;47.420;9.310;2024-03-22T14:03:28;1.20;;;1.10;;
82387;SDS011;72027;47.420;9.310;2024-03-22T14:05:54;1.52;;;0.75;;
82387;SDS011;72027;47.420;9.310;2024-03-22T14:08:22;3.42;;;1.20;;
82387;SDS011;72027;47.420;9.310;2024-03-22T14:10:48;2.90;;;1.40;;
82387;SDS011;72027;47.420;9.310;2024-03-22T14:13:15;2.65;;;1.00;;
82387;SDS011;72027;47.420;9.310;2024-03-22T14:15:42;2.30;;;0.90;;
82387;SDS011;72027;47.420;9.310;2024-03-22T14:18:09;1.85;;;0.75;;
82387;SDS011;72027;47.420;9.310;2024-03-22T14:20:36;1.95;;;1.20;;
82387;SDS011;72027;47.420;9.310;2024-03-22T14:23:02;2.25;;;1.10;;
82387;SDS011;72027;47.420;9.310;2024-03-22T14:25:31;2.78;;;1.10;;
82387;SDS011;72027;47.420;9.310;2024-03-22T14:27:57;3.17;;;0.95;;
82387;SDS011;72027;47.420;9.310;2024-03-22T14:30:24;1.15;;;1.00;;
82387;SDS011;72027;47.420;9.310;2024-03-22T14:32:50;2.05;;;1.20;;
82387;SDS011;72027;47.420;9.310;2024-03-22T14:35:18;1.27;;;1.17;;
82387;SDS011;72027;47.420;9.310;2024-03-22T14:37:44;3.78;;;0.80;;
82387;SDS011;72027;47.420;9.310;2024-03-22T14:40:11;0.95;;;0.85;;
82387;SDS011;72027;47.420;9.310;2024-03-22T14:42:38;1.23;;;1.02;;
82387;SDS011;72027;47.420;9.310;2024-03-22T14:45:05;1.85;;;1.02;;
82387;SDS011;72027;47.420;9.310;2024-03-22T14:47:34;2.42;;;0.95;;
82387;SDS011;72027;47.420;9.310;2024-03-22T14:50:02;8.35;;;0.90;;
82387;SDS011;72027;47.420;9.310;2024-03-22T14:54:55;1.70;;;0.97;;
82387;SDS011;72027;47.420;9.310;2024-03-22T14:57:22;2.40;;;1.05;;
82387;SDS011;72027;47.420;9.310;2024-03-22T14:59:50;1.33;;;1.00;;
82387;SDS011;72027;47.420;9.310;2024-03-22T15:02:18;3.60;;;1.17;;
82387;SDS011;72027;47.420;9.310;2024-03-22T15:04:45;4.85;;;1.00;;
82387;SDS011;72027;47.420;9.310;2024-03-22T15:07:11;2.53;;;1.23;;
82387;SDS011;72027;47.420;9.310;2024-03-22T15:09:38;1.85;;;1.05;;
82387;SDS011;72027;47.420;9.310;2024-03-22T15:12:04;2.20;;;1.00;;
82387;SDS011;72027;47.420;9.310;2024-03-22T15:14:34;2.28;;;1.10;;
82387;SDS011;72027;47.420;9.310;2024-03-22T15:17:02;1.27;;;0.90;;
82387;SDS011;72027;47.420;9.310;2024-03-22T15:19:30;1.17;;;1.05;;
82387;SDS011;72027;47.420;9.310;2024-03-22T15:21:56;2.03;;;0.70;;
82387;SDS011;72027;47.420;9.310;2024-03-22T15:24:23;0.98;;;0.98;;
82387;SDS011;72027;47.420;9.310;2024-03-22T15:26:49;2.78;;;1.88;;
82387;SDS011;72027;47.420;9.310;2024-03-22T15:29:16;1.30;;;1.02;;
82387;SDS011;72027;47.420;9.310;2024-03-22T15:31:42;1.27;;;0.98;;
82387;SDS011;72027;47.420;9.310;2024-03-22T15:34:10;1.75;;;1.38;;
82387;SDS011;72027;47.420;9.310;2024-03-22T15:36:37;1.52;;;0.90;;
82387;SDS011;72027;47.420;9.310;2024-03-22T15:39:04;1.23;;;0.80;;